Time;durP1;ratioP1;P1;durP2;ratioP2;P2;SDS_P1;SDS_P2;PMS_P1;PMS_P2;Temp;Humidity;BMP_temperature;BMP_pressure;BME280_temperature;BME280_humidity;BME280_pressure;Samples;Min_cycle;Max_cycle;Signal;HPM_P1;HPM_P2
2023/05/27 00:00:20;;;;;;;12.45;4.28;;;;;;;;;;5094798;28;20044;-89
2023/05/27 00:02:47;;;;;;;11.68;4.25;;;;;;;;;;5094757;28;20071;-89
2023/05/27 00:05:14;;;;;;;10.57;3.88;;;;;;;;;;5096342;28;20066;-89
2023/05/27 00:07:42;;;;;;;15.73;4.50;;;;;;;;;;5094821;28;20462;-89
2023/05/27 00:10:10;;;;;;;13.52;4.82;;;;;;;;;;5095953;28;20052;-89
2023/05/27 00:12:37;;;;;;;14.65;4.75;;;;;;;;;;5094751;28;20055;-90
2023/05/27 00:15:04;;;;;;;12.40;4.68;;;;;;;;;;5095460;28;20059;-90
2023/05/27 00:17:32;;;;;;;14.75;5.15;;;;;;;;;;5094545;28;20098;-90
2023/05/27 00:20:06;;;;;;;21.25;5.97;;;;;;;;;;5094273;28;20525;-91
2023/05/27 00:22:34;;;;;;;13.90;4.43;;;;;;;;;;5094564;28;20052;-89
2023/05/27 00:25:02;;;;;;;17.00;5.60;;;;;;;;;;5095108;28;20040;-90
2023/05/27 00:27:29;;;;;;;9.57;4.43;;;;;;;;;;5095357;28;20044;-89
2023/05/27 00:29:56;;;;;;;11.30;4.50;;;;;;;;;;5094266;28;20134;-89
2023/05/27 00:32:23;;;;;;;17.42;5.13;;;;;;;;;;5094419;28;20052;-90
2023/05/27 00:34:51;;;;;;;13.00;4.90;;;;;;;;;;5095035;28;20599;-90
2023/05/27 00:37:18;;;;;;;13.63;5.05;;;;;;;;;;5095164;28;20047;-90
2023/05/27 00:39:45;;;;;;;11.10;4.18;;;;;;;;;;5095385;28;20048;-90
2023/05/27 00:42:13;;;;;;;10.48;4.22;;;;;;;;;;5094968;28;20049;-90
2023/05/27 00:44:41;;;;;;;12.60;4.43;;;;;;;;;;5094034;28;20101;-89
2023/05/27 00:47:08;;;;;;;14.23;4.53;;;;;;;;;;5093699;28;20087;-90
2023/05/27 00:49:36;;;;;;;17.40;4.32;;;;;;;;;;5093673;28;20133;-89
2023/05/27 00:52:03;;;;;;;16.00;4.55;;;;;;;;;;5093879;28;20097;-90
2023/05/27 00:54:34;;;;;;;11.90;4.55;;;;;;;;;;5094117;28;20052;-89
2023/05/27 00:57:02;;;;;;;12.80;4.00;;;;;;;;;;5095759;28;20085;-90
2023/05/27 00:59:29;;;;;;;12.75;4.03;;;;;;;;;;5093709;28;20052;-89
2023/05/27 01:01:56;;;;;;;16.20;4.28;;;;;;;;;;5093381;28;20052;-89
2023/05/27 01:04:25;;;;;;;12.65;4.45;;;;;;;;;;5094178;28;20090;-88
2023/05/27 01:07:16;;;;;;;11.02;4.43;;;;;;;;;;5094170;28;20048;-89
2023/05/27 01:09:48;;;;;;;13.18;4.25;;;;;;;;;;5094245;28;20048;-89
2023/05/27 01:12:27;;;;;;;12.32;4.72;;;;;;;;;;5093143;28;20083;-89
2023/05/27 01:14:57;;;;;;;12.38;4.45;;;;;;;;;;5094172;28;20492;-89
2023/05/27 01:17:26;;;;;;;14.23;5.15;;;;;;;;;;5093346;28;20105;-89
2023/05/27 01:19:54;;;;;;;14.35;4.72;;;;;;;;;;5092891;28;20144;-88
2023/05/27 01:22:26;;;;;;;14.18;5.03;;;;;;;;;;5092740;28;20044;-89
2023/05/27 01:24:53;;;;;;;15.98;4.45;;;;;;;;;;5092918;28;20078;-89
2023/05/27 01:27:20;;;;;;;12.75;4.57;;;;;;;;;;5093076;28;20453;-89
2023/05/27 01:29:48;;;;;;;16.27;4.82;;;;;;;;;;5093126;28;20057;-89
2023/05/27 01:32:17;;;;;;;15.50;4.38;;;;;;;;;;5092878;28;20040;-89
2023/05/27 01:35:07;;;;;;;13.65;4.28;;;;;;;;;;5093006;28;20055;-89
2023/05/27 01:37:38;;;;;;;12.50;4.50;;;;;;;;;;5092954;28;20047;-88
2023/05/27 01:40:06;;;;;;;18.85;5.43;;;;;;;;;;5092795;28;20044;-89
2023/05/27 01:42:35;;;;;;;15.00;4.95;;;;;;;;;;5093610;28;20077;-89
2023/05/27 01:45:06;;;;;;;11.95;5.03;;;;;;;;;;5092695;28;20051;-89
2023/05/27 01:47:34;;;;;;;16.15;5.03;;;;;;;;;;5093730;28;20048;-90
2023/05/27 01:50:02;;;;;;;13.40;4.80;;;;;;;;;;5093744;28;20056;-89
2023/05/27 01:52:29;;;;;;;16.08;4.88;;;;;;;;;;5093822;28;20070;-89
2023/05/27 01:54:56;;;;;;;13.60;4.75;;;;;;;;;;5093883;28;20052;-89
2023/05/27 01:57:24;;;;;;;12.88;5.18;;;;;;;;;;5092837;28;20476;-89
2023/05/27 01:59:52;;;;;;;15.98;4.90;;;;;;;;;;5092937;28;20048;-90
2023/05/27 02:02:19;;;;;;;16.08;5.38;;;;;;;;;;5092342;28;20496;-89
2023/05/27 02:04:46;;;;;;;16.75;4.72;;;;;;;;;;5092376;28;20048;-89
2023/05/27 02:07:13;;;;;;;11.25;4.65;;;;;;;;;;5091885;28;20040;-89
2023/05/27 02:09:41;;;;;;;14.98;4.82;;;;;;;;;;5093063;28;20125;-89
2023/05/27 02:12:08;;;;;;;14.57;4.95;;;;;;;;;;5093879;28;20066;-89
2023/05/27 02:14:38;;;;;;;13.55;5.00;;;;;;;;;;5092406;28;20048;-89
2023/05/27 02:17:06;;;;;;;17.92;5.32;;;;;;;;;;5092416;28;20052;-89
2023/05/27 02:19:33;;;;;;;12.52;4.50;;;;;;;;;;5093795;28;20048;-89
2023/05/27 02:22:01;;;;;;;16.42;5.40;;;;;;;;;;5096351;28;20059;-89
2023/05/27 02:24:28;;;;;;;17.60;4.80;;;;;;;;;;5096210;28;20116;-89
2023/05/27 02:26:55;;;;;;;15.95;4.72;;;;;;;;;;5097491;28;20059;-88
2023/05/27 02:29:23;;;;;;;14.73;4.65;;;;;;;;;;5096217;28;20071;-89
2023/05/27 02:31:50;;;;;;;13.98;4.60;;;;;;;;;;5096176;28;20454;-89
2023/05/27 02:34:17;;;;;;;17.38;4.75;;;;;;;;;;5097069;28;20052;-89
2023/05/27 02:36:45;;;;;;;18.05;4.90;;;;;;;;;;5096040;28;20074;-89
2023/05/27 02:39:12;;;;;;;16.30;4.43;;;;;;;;;;5096973;28;20044;-89
2023/05/27 02:41:40;;;;;;;11.25;4.75;;;;;;;;;;5095881;28;20504;-90
2023/05/27 02:44:07;;;;;;;12.65;5.30;;;;;;;;;;5096073;28;20048;-89
2023/05/27 02:46:34;;;;;;;16.75;5.82;;;;;;;;;;5097296;28;20058;-91
2023/05/27 02:49:02;;;;;;;14.65;5.40;;;;;;;;;;5095909;28;20051;-90
2023/05/27 02:51:29;;;;;;;13.88;5.35;;;;;;;;;;5095932;28;20063;-90
2023/05/27 02:53:56;;;;;;;13.27;4.53;;;;;;;;;;5095742;28;20052;-91
2023/05/27 02:56:25;;;;;;;21.15;5.32;;;;;;;;;;5096519;28;20052;-90
2023/05/27 02:58:53;;;;;;;13.98;4.63;;;;;;;;;;5095868;28;20052;-90
2023/05/27 03:01:20;;;;;;;11.05;4.95;;;;;;;;;;5095684;28;20048;-90
2023/05/27 03:03:47;;;;;;;9.73;4.40;;;;;;;;;;5095653;28;20044;-89
2023/05/27 03:06:15;;;;;;;10.57;4.88;;;;;;;;;;5095558;28;20048;-90
2023/05/27 03:08:42;;;;;;;19.38;5.20;;;;;;;;;;5096699;28;20541;-90
2023/05/27 03:11:09;;;;;;;15.43;4.63;;;;;;;;;;5095614;28;20052;-90
2023/05/27 03:13:37;;;;;;;12.48;5.15;;;;;;;;;;5095908;28;20145;-91
2023/05/27 03:16:05;;;;;;;16.95;4.90;;;;;;;;;;5095640;28;20089;-90
2023/05/27 03:18:32;;;;;;;15.50;5.75;;;;;;;;;;5095726;28;20124;-89
2023/05/27 03:21:01;;;;;;;15.80;5.80;;;;;;;;;;5098019;28;20052;-90
2023/05/27 03:23:28;;;;;;;16.23;5.38;;;;;;;;;;5096723;28;20051;-90
2023/05/27 03:25:55;;;;;;;15.40;4.63;;;;;;;;;;5097409;28;20051;-90
2023/05/27 03:28:22;;;;;;;12.70;5.22;;;;;;;;;;5097098;28;20090;-90
2023/05/27 03:30:50;;;;;;;13.77;5.60;;;;;;;;;;5095128;28;20561;-91
2023/05/27 03:33:17;;;;;;;20.33;5.60;;;;;;;;;;5095332;28;20109;-91
2023/05/27 03:35:44;;;;;;;13.77;5.47;;;;;;;;;;5096393;28;20094;-90
2023/05/27 03:38:12;;;;;;;14.85;5.63;;;;;;;;;;5095510;28;20056;-88
2023/05/27 03:40:39;;;;;;;14.27;5.00;;;;;;;;;;5095341;28;20044;-90
2023/05/27 03:43:06;;;;;;;12.60;5.10;;;;;;;;;;5095041;28;20109;-91
2023/05/27 03:45:33;;;;;;;13.77;5.65;;;;;;;;;;5095889;28;20454;-91
2023/05/27 03:48:01;;;;;;;11.93;5.55;;;;;;;;;;5094735;28;20150;-91
2023/05/27 03:50:28;;;;;;;13.73;5.18;;;;;;;;;;5095128;28;20078;-90
2023/05/27 03:52:55;;;;;;;15.18;5.82;;;;;;;;;;5094587;28;20101;-90
2023/05/27 03:55:23;;;;;;;19.52;5.93;;;;;;;;;;5094376;28;20051;-91
2023/05/27 03:57:50;;;;;;;13.40;6.78;;;;;;;;;;5095790;28;20040;-90
2023/05/27 04:00:18;;;;;;;20.70;6.60;;;;;;;;;;5094432;28;20055;-90
2023/05/27 04:02:45;;;;;;;20.33;5.88;;;;;;;;;;5095430;28;20101;-89
2023/05/27 04:05:13;;;;;;;14.73;6.30;;;;;;;;;;5095514;28;20051;-88
2023/05/27 04:07:40;;;;;;;18.15;6.15;;;;;;;;;;5094694;28;20561;-90
2023/05/27 04:10:07;;;;;;;19.48;6.50;;;;;;;;;;5094583;28;20074;-90
2023/05/27 04:12:34;;;;;;;16.45;5.95;;;;;;;;;;5094447;28;20048;-90
2023/05/27 04:15:02;;;;;;;24.58;7.00;;;;;;;;;;5095199;28;20078;-90
2023/05/27 04:17:29;;;;;;;19.40;6.65;;;;;;;;;;5094596;28;20044;-90
2023/05/27 04:19:59;;;;;;;15.95;5.78;;;;;;;;;;5094224;28;20416;-91
2023/05/27 04:22:26;;;;;;;13.32;6.70;;;;;;;;;;5094614;28;20101;-90
2023/05/27 04:24:53;;;;;;;18.92;7.22;;;;;;;;;;5095153;28;20058;-90
2023/05/27 04:27:24;;;;;;;24.90;10.27;;;;;;;;;;5094626;28;20048;-90
2023/05/27 04:29:52;;;;;;;20.42;8.43;;;;;;;;;;5094149;28;20044;-90
2023/05/27 04:32:20;;;;;;;21.70;8.25;;;;;;;;;;5094432;28;20127;-90
2023/05/27 04:34:48;;;;;;;22.85;7.20;;;;;;;;;;5093935;28;20135;-91
2023/05/27 04:37:17;;;;;;;15.65;6.40;;;;;;;;;;5094176;28;20113;-91
2023/05/27 04:39:45;;;;;;;15.57;6.57;;;;;;;;;;5094955;28;20048;-90
2023/05/27 04:42:16;;;;;;;15.30;6.22;;;;;;;;;;5096530;28;20489;-91
2023/05/27 04:44:43;;;;;;;15.93;5.90;;;;;;;;;;5094625;28;20048;-92
2023/05/27 04:47:10;;;;;;;14.10;5.60;;;;;;;;;;5094763;28;20097;-91
2023/05/27 04:49:38;;;;;;;18.58;5.88;;;;;;;;;;5094021;28;20097;-91
2023/05/27 04:52:06;;;;;;;14.50;5.55;;;;;;;;;;5093711;28;20101;-90
2023/05/27 04:54:34;;;;;;;13.27;5.25;;;;;;;;;;5093594;28;20051;-90
2023/05/27 04:57:01;;;;;;;13.13;4.88;;;;;;;;;;5093938;28;20093;-90
2023/05/27 05:02:21;;;;;;;17.38;5.30;;;;;;;;;;5094686;28;20095;-91
2023/05/27 05:04:50;;;;;;;21.73;5.50;;;;;;;;;;5093350;28;20052;-90
2023/05/27 05:07:19;;;;;;;22.13;5.57;;;;;;;;;;5093464;28;20051;-90
2023/05/27 05:09:46;;;;;;;22.65;4.97;;;;;;;;;;5093315;28;20105;-91
2023/05/27 05:12:14;;;;;;;18.13;4.88;;;;;;;;;;5094719;28;20071;-91
2023/05/27 05:14:41;;;;;;;24.45;5.35;;;;;;;;;;5093623;28;20048;-90
2023/05/27 05:17:08;;;;;;;10.65;4.07;;;;;;;;;;5093209;28;20041;-91
2023/05/27 05:19:36;;;;;;;11.93;3.90;;;;;;;;;;5094136;28;20052;-88
2023/05/27 05:22:03;;;;;;;16.92;4.20;;;;;;;;;;5093421;28;20044;-88
2023/05/27 05:24:31;;;;;;;8.02;3.80;;;;;;;;;;5096068;28;20044;-89
2023/05/27 05:26:58;;;;;;;10.77;3.58;;;;;;;;;;5093256;28;20476;-88
2023/05/27 05:29:25;;;;;;;15.18;4.10;;;;;;;;;;5092670;28;20097;-88
2023/05/27 05:31:52;;;;;;;9.52;4.03;;;;;;;;;;5093976;28;20507;-89
2023/05/27 05:34:20;;;;;;;13.20;3.88;;;;;;;;;;5100629;28;20059;-89
2023/05/27 05:36:47;;;;;;;10.05;3.80;;;;;;;;;;5093926;28;20040;-90
2023/05/27 05:39:15;;;;;;;15.25;3.83;;;;;;;;;;5093270;28;20089;-91
2023/05/27 05:41:43;;;;;;;20.55;3.97;;;;;;;;;;5093455;28;20044;-91
2023/05/27 05:44:10;;;;;;;15.65;3.70;;;;;;;;;;5093241;28;20071;-90
2023/05/27 05:46:38;;;;;;;7.88;3.10;;;;;;;;;;5093470;28;20055;-90
2023/05/27 05:49:05;;;;;;;15.73;4.22;;;;;;;;;;5093047;28;20109;-90
2023/05/27 05:51:33;;;;;;;12.60;3.85;;;;;;;;;;5094176;28;20039;-88
2023/05/27 05:54:00;;;;;;;12.48;3.88;;;;;;;;;;5092097;28;20097;-89
2023/05/27 05:56:27;;;;;;;20.88;4.30;;;;;;;;;;5093820;28;20077;-88
2023/05/27 05:58:54;;;;;;;18.58;4.53;;;;;;;;;;5093121;28;20062;-89
2023/05/27 06:01:22;;;;;;;22.27;4.57;;;;;;;;;;5093036;28;20105;-89
2023/05/27 06:03:50;;;;;;;18.02;4.13;;;;;;;;;;5092719;28;20070;-89
2023/05/27 06:06:17;;;;;;;16.20;4.70;;;;;;;;;;5092864;28;20048;-89
2023/05/27 06:08:45;;;;;;;23.48;4.75;;;;;;;;;;5093108;28;20145;-89
2023/05/27 06:11:12;;;;;;;18.35;4.72;;;;;;;;;;5093025;28;20052;-89
2023/05/27 06:13:40;;;;;;;17.33;4.72;;;;;;;;;;5092838;28;20454;-89
2023/05/27 06:16:07;;;;;;;16.35;4.30;;;;;;;;;;5092297;28;20117;-88
2023/05/27 06:18:34;;;;;;;15.75;4.70;;;;;;;;;;5092752;28;20048;-88
2023/05/27 06:21:02;;;;;;;19.05;4.80;;;;;;;;;;5092484;28;20193;-90
2023/05/27 06:23:29;;;;;;;17.95;4.35;;;;;;;;;;5093024;28;20097;-89
2023/05/27 06:25:56;;;;;;;19.02;4.82;;;;;;;;;;5092836;28;20113;-89
2023/05/27 06:28:23;;;;;;;14.82;3.63;;;;;;;;;;5092759;28;20080;-90
2023/05/27 06:30:51;;;;;;;14.10;4.40;;;;;;;;;;5092970;28;20072;-88
2023/05/27 06:33:18;;;;;;;14.27;4.43;;;;;;;;;;5092585;28;20052;-88
2023/05/27 06:35:45;;;;;;;9.20;3.42;;;;;;;;;;5092580;28;20052;-89
2023/05/27 06:38:13;;;;;;;11.40;4.57;;;;;;;;;;5092463;28;20044;-88
2023/05/27 06:40:40;;;;;;;11.23;4.00;;;;;;;;;;5092585;28;20447;-89
2023/05/27 06:43:07;;;;;;;13.43;3.80;;;;;;;;;;5092355;28;20048;-88
2023/05/27 06:45:35;;;;;;;13.98;3.70;;;;;;;;;;5092464;28;20055;-89
2023/05/27 06:48:02;;;;;;;14.45;4.25;;;;;;;;;;5092491;28;20496;-88
2023/05/27 06:50:30;;;;;;;16.60;4.22;;;;;;;;;;5092290;28;20052;-89
2023/05/27 06:52:57;;;;;;;11.50;4.05;;;;;;;;;;5092358;28;20489;-91
2023/05/27 06:55:24;;;;;;;11.95;4.95;;;;;;;;;;5092761;28;20079;-88
2023/05/27 06:57:51;;;;;;;13.73;4.13;;;;;;;;;;5092392;28;20048;-90
2023/05/27 07:00:19;;;;;;;17.27;4.47;;;;;;;;;;5092829;28;20078;-88
2023/05/27 07:02:46;;;;;;;15.30;4.43;;;;;;;;;;5093250;28;20055;-89
2023/05/27 07:05:14;;;;;;;15.93;4.65;;;;;;;;;;5093923;28;20059;-90
2023/05/27 07:07:41;;;;;;;15.65;5.10;;;;;;;;;;5096235;28;20073;-88
2023/05/27 07:10:08;;;;;;;14.93;3.72;;;;;;;;;;5096421;28;20105;-92
2023/05/27 07:12:36;;;;;;;11.30;4.72;;;;;;;;;;5099474;28;20134;-91
2023/05/27 07:15:03;;;;;;;15.70;5.35;;;;;;;;;;5098203;28;20056;-93
2023/05/27 07:17:30;;;;;;;18.77;4.60;;;;;;;;;;5096062;28;20048;-93
2023/05/27 07:19:58;;;;;;;11.23;4.00;;;;;;;;;;5095582;28;20492;-90
2023/05/27 07:22:26;;;;;;;15.00;5.00;;;;;;;;;;5095983;28;20135;-93
2023/05/27 07:24:53;;;;;;;16.15;4.30;;;;;;;;;;5096217;28;20462;-94
2023/05/27 07:27:21;;;;;;;10.88;4.40;;;;;;;;;;5096201;28;20060;-93
2023/05/27 07:29:48;;;;;;;10.48;4.15;;;;;;;;;;5095064;28;20488;-92
2023/05/27 07:32:15;;;;;;;10.75;3.78;;;;;;;;;;5095230;28;20083;-92
2023/05/27 07:34:43;;;;;;;12.88;4.10;;;;;;;;;;5099060;28;20047;-95
2023/05/27 07:37:10;;;;;;;11.77;4.10;;;;;;;;;;5096976;28;20070;-94
2023/05/27 07:39:37;;;;;;;13.95;7.38;;;;;;;;;;5101374;28;20047;-95
2023/05/27 07:42:07;;;;;;;12.15;4.70;;;;;;;;;;5100407;28;20484;-90
2023/05/27 07:44:35;;;;;;;9.07;4.05;;;;;;;;;;5095730;28;20099;-91
2023/05/27 07:47:02;;;;;;;16.55;4.60;;;;;;;;;;5103435;28;20051;-93
2023/05/27 07:49:30;;;;;;;13.18;4.72;;;;;;;;;;5099469;28;20492;-91
2023/05/27 07:51:57;;;;;;;12.00;4.03;;;;;;;;;;5096489;28;20056;-95
2023/05/27 07:54:26;;;;;;;13.35;4.28;;;;;;;;;;5101191;28;20105;-94
2023/05/27 07:56:54;;;;;;;11.40;4.00;;;;;;;;;;5104043;28;20056;-93
2023/05/27 07:59:21;;;;;;;16.23;4.53;;;;;;;;;;5102029;28;20506;-96
2023/05/27 08:01:48;;;;;;;10.35;4.70;;;;;;;;;;5095697;28;20052;-90
2023/05/27 08:04:15;;;;;;;12.93;4.32;;;;;;;;;;5094989;28;20101;-89
2023/05/27 08:06:49;;;;;;;13.27;4.30;;;;;;;;;;5095034;28;20106;-96
2023/05/27 08:09:17;;;;;;;10.80;4.28;;;;;;;;;;5096241;28;20101;-96
2023/05/27 08:11:44;;;;;;;11.18;4.05;;;;;;;;;;5096214;28;20044;-95
2023/05/27 08:14:12;;;;;;;16.08;4.30;;;;;;;;;;5094752;28;20051;-88
2023/05/27 08:16:40;;;;;;;12.85;4.30;;;;;;;;;;5093925;28;20048;-94
2023/05/27 08:19:09;;;;;;;10.82;3.85;;;;;;;;;;5094508;28;20056;-94
2023/05/27 08:21:37;;;;;;;10.52;3.85;;;;;;;;;;5095069;28;20063;-92
2023/05/27 08:24:05;;;;;;;12.63;4.20;;;;;;;;;;5094622;28;20052;-92
2023/05/27 08:26:35;;;;;;;13.82;4.88;;;;;;;;;;5094604;28;20101;-94
2023/05/27 08:29:02;;;;;;;10.40;4.00;;;;;;;;;;5100969;28;20043;-91
2023/05/27 08:31:30;;;;;;;10.52;3.88;;;;;;;;;;5095765;28;20393;-89
2023/05/27 08:33:57;;;;;;;12.18;3.95;;;;;;;;;;5094769;28;20078;-90
2023/05/27 08:36:24;;;;;;;13.23;4.38;;;;;;;;;;5094898;28;20454;-94
2023/05/27 08:38:52;;;;;;;15.70;4.70;;;;;;;;;;5095216;28;20048;-93
2023/05/27 08:41:19;;;;;;;11.18;3.95;;;;;;;;;;5095137;28;20067;-95
2023/05/27 08:43:46;;;;;;;7.97;3.65;;;;;;;;;;5094675;28;20087;-93
2023/05/27 08:46:16;;;;;;;9.98;3.88;;;;;;;;;;5094683;28;20055;-91
2023/05/27 08:48:44;;;;;;;11.25;3.92;;;;;;;;;;5094336;28;20555;-88
2023/05/27 08:51:11;;;;;;;13.52;4.45;;;;;;;;;;5093756;28;20044;-92
2023/05/27 08:53:39;;;;;;;10.40;4.15;;;;;;;;;;5094017;28;20051;-90
2023/05/27 08:56:06;;;;;;;11.25;4.00;;;;;;;;;;5094223;28;20536;-89
2023/05/27 08:58:34;;;;;;;10.75;4.20;;;;;;;;;;5094183;28;20047;-88
2023/05/27 09:01:02;;;;;;;12.00;4.10;;;;;;;;;;5094027;28;20048;-91
2023/05/27 09:03:29;;;;;;;14.52;4.18;;;;;;;;;;5093989;28;20105;-91
2023/05/27 09:05:56;;;;;;;10.82;4.03;;;;;;;;;;5093828;28;20048;-94
2023/05/27 09:08:25;;;;;;;11.82;4.15;;;;;;;;;;5094524;28;20070;-90
2023/05/27 09:11:07;;;;;;;13.18;4.18;;;;;;;;;;5093482;28;20044;-91
2023/05/27 09:13:35;;;;;;;8.60;3.45;;;;;;;;;;5093889;28;20119;-96
2023/05/27 09:16:03;;;;;;;11.68;4.00;;;;;;;;;;5093972;28;20052;-96
2023/05/27 09:18:32;;;;;;;12.10;4.22;;;;;;;;;;5094083;28;20268;-88
2023/05/27 09:20:59;;;;;;;12.07;4.20;;;;;;;;;;5093533;28;20056;-89
2023/05/27 09:23:26;;;;;;;9.07;3.65;;;;;;;;;;5093616;28;20640;-88
2023/05/27 09:25:54;;;;;;;15.25;4.55;;;;;;;;;;5093511;28;20047;-92
2023/05/27 09:28:25;;;;;;;18.63;4.72;;;;;;;;;;5093733;28;20044;-92
2023/05/27 09:31:00;;;;;;;13.27;4.20;;;;;;;;;;5094194;28;20097;-88
2023/05/27 09:33:32;;;;;;;10.85;3.70;;;;;;;;;;5093186;28;20048;-87
2023/05/27 09:36:01;;;;;;;9.75;4.00;;;;;;;;;;5093562;28;20036;-90
2023/05/27 09:38:29;;;;;;;13.45;4.00;;;;;;;;;;5093017;28;20073;-89
2023/05/27 09:41:01;;;;;;;12.65;4.50;;;;;;;;;;5093197;28;20113;-92
2023/05/27 09:43:29;;;;;;;9.25;3.53;;;;;;;;;;5094248;28;20055;-90
2023/05/27 09:46:00;;;;;;;11.48;3.50;;;;;;;;;;5095145;28;20105;-87
2023/05/27 09:48:28;;;;;;;13.55;3.72;;;;;;;;;;5093349;28;20048;-93
2023/05/27 09:50:57;;;;;;;12.75;4.18;;;;;;;;;;5092520;28;20076;-93
2023/05/27 09:53:26;;;;;;;11.85;3.78;;;;;;;;;;5092787;28;20040;-91
2023/05/27 09:55:54;;;;;;;12.40;3.60;;;;;;;;;;5093010;28;20136;-87
2023/05/27 09:58:22;;;;;;;10.45;3.90;;;;;;;;;;5092953;28;20047;-90
2023/05/27 10:00:50;;;;;;;12.13;3.40;;;;;;;;;;5095183;28;20066;-90
2023/05/27 10:03:21;;;;;;;8.73;3.65;;;;;;;;;;5094057;28;20063;-92
2023/05/27 10:05:49;;;;;;;10.63;3.83;;;;;;;;;;5093508;28;20522;-90
2023/05/27 10:08:17;;;;;;;11.50;4.10;;;;;;;;;;5093440;28;20440;-92
2023/05/27 10:10:52;;;;;;;10.00;3.97;;;;;;;;;;5093439;28;20510;-90
2023/05/27 10:13:22;;;;;;;11.73;3.78;;;;;;;;;;5093609;28;20051;-90
2023/05/27 10:15:51;;;;;;;18.90;4.28;;;;;;;;;;5093390;28;20075;-88
2023/05/27 10:18:23;;;;;;;10.73;3.92;;;;;;;;;;5092969;28;20048;-89
2023/05/27 10:20:51;;;;;;;10.90;4.30;;;;;;;;;;5093312;28;20052;-94
2023/05/27 10:23:21;;;;;;;13.27;3.63;;;;;;;;;;5092946;28;20396;-92
2023/05/27 10:25:50;;;;;;;11.55;3.80;;;;;;;;;;5093476;28;20109;-91
2023/05/27 10:28:27;;;;;;;7.85;3.63;;;;;;;;;;5094845;28;20121;-89
2023/05/27 10:31:04;;;;;;;11.85;3.97;;;;;;;;;;5093517;28;20113;-92
2023/05/27 10:33:32;;;;;;;11.35;3.65;;;;;;;;;;5092954;28;20052;-89
2023/05/27 10:36:10;;;;;;;7.13;3.53;;;;;;;;;;5092710;28;20048;-92
2023/05/27 10:38:38;;;;;;;8.38;3.70;;;;;;;;;;5077949;28;20117;-93
2023/05/27 10:41:07;;;;;;;10.07;3.47;;;;;;;;;;5095118;28;20059;-90
2023/05/27 10:43:34;;;;;;;12.65;4.05;;;;;;;;;;5097147;28;20056;-88
2023/05/27 10:46:09;;;;;;;9.13;3.78;;;;;;;;;;5097482;28;20075;-94
2023/05/27 10:48:39;;;;;;;14.48;4.70;;;;;;;;;;5097271;28;20140;-89
2023/05/27 10:51:07;;;;;;;13.05;3.60;;;;;;;;;;5096592;28;20139;-93
2023/05/27 10:53:37;;;;;;;10.15;3.83;;;;;;;;;;5096797;28;20495;-93
2023/05/27 10:56:04;;;;;;;10.63;3.50;;;;;;;;;;5096244;28;20058;-91
2023/05/27 10:58:35;;;;;;;8.45;3.58;;;;;;;;;;5097809;28;20052;-90
2023/05/27 11:01:11;;;;;;;8.50;3.40;;;;;;;;;;5098433;28;20052;-88
2023/05/27 11:03:43;;;;;;;10.15;3.42;;;;;;;;;;5096659;28;20484;-94
2023/05/27 11:06:11;;;;;;;9.50;4.10;;;;;;;;;;5096650;28;20056;-90
2023/05/27 11:08:38;;;;;;;11.35;3.65;;;;;;;;;;5096857;28;20416;-90
2023/05/27 11:11:07;;;;;;;9.38;3.22;;;;;;;;;;5096676;28;20063;-94
2023/05/27 11:13:36;;;;;;;9.02;3.40;;;;;;;;;;5096607;28;20097;-92
2023/05/27 11:16:05;;;;;;;10.43;3.33;;;;;;;;;;5096665;28;20087;-96
2023/05/27 11:18:40;;;;;;;7.10;3.33;;;;;;;;;;5095790;28;20453;-91
2023/05/27 11:21:08;;;;;;;9.65;3.38;;;;;;;;;;5096948;28;20098;-90
2023/05/27 11:23:40;;;;;;;11.35;3.67;;;;;;;;;;5096404;28;20048;-91
2023/05/27 11:26:23;;;;;;;10.82;3.42;;;;;;;;;;5096820;28;20051;-94
2023/05/27 11:28:50;;;;;;;7.18;3.55;;;;;;;;;;5095161;28;20080;-91
2023/05/27 11:31:19;;;;;;;10.45;3.22;;;;;;;;;;5095763;28;20105;-91
2023/05/27 11:33:49;;;;;;;7.60;3.30;;;;;;;;;;5095705;28;20056;-90
2023/05/27 11:36:16;;;;;;;9.35;3.30;;;;;;;;;;5096347;28;20467;-95
2023/05/27 11:38:53;;;;;;;6.75;3.40;;;;;;;;;;5096397;28;20067;-91
2023/05/27 11:41:29;;;;;;;8.90;3.35;;;;;;;;;;5099379;28;20044;-90
2023/05/27 11:43:58;;;;;;;8.02;3.65;;;;;;;;;;5096040;28;20055;-89
2023/05/27 11:46:35;;;;;;;6.88;3.45;;;;;;;;;;5095791;28;20454;-90
2023/05/27 11:49:07;;;;;;;7.05;3.10;;;;;;;;;;5096214;28;20139;-93
2023/05/27 11:51:35;;;;;;;7.88;2.67;;;;;;;;;;5096125;28;20109;-89
2023/05/27 11:54:02;;;;;;;9.70;3.33;;;;;;;;;;5094985;28;20401;-93
2023/05/27 11:56:30;;;;;;;16.63;3.80;;;;;;;;;;5094987;28;20059;-89
2023/05/27 11:58:58;;;;;;;8.60;2.60;;;;;;;;;;5096211;28;20083;-93
2023/05/27 12:01:26;;;;;;;6.65;3.20;;;;;;;;;;5096779;28;20484;-91
2023/05/27 12:03:53;;;;;;;8.25;3.40;;;;;;;;;;5096808;28;20048;-95
2023/05/27 12:06:20;;;;;;;7.55;3.00;;;;;;;;;;5095859;28;20063;-92
2023/05/27 12:08:48;;;;;;;10.80;3.20;;;;;;;;;;5095504;28;20079;-94
2023/05/27 12:11:15;;;;;;;7.03;3.00;;;;;;;;;;5098418;28;20447;-93
2023/05/27 12:13:43;;;;;;;6.57;2.80;;;;;;;;;;5106649;28;20044;-91
2023/05/27 12:16:11;;;;;;;5.95;2.58;;;;;;;;;;5107817;28;20558;-95
2023/05/27 12:18:40;;;;;;;8.18;3.53;;;;;;;;;;5095560;28;20496;-92
2023/05/27 12:21:08;;;;;;;4.68;2.50;;;;;;;;;;5105001;28;20052;-89
2023/05/27 12:23:36;;;;;;;6.22;2.35;;;;;;;;;;5097030;28;20131;-90
2023/05/27 12:26:04;;;;;;;6.93;2.72;;;;;;;;;;5080350;28;20508;-95
2023/05/27 12:28:31;;;;;;;12.30;3.42;;;;;;;;;;5096113;28;20507;-93
2023/05/27 12:30:58;;;;;;;6.03;2.83;;;;;;;;;;5096275;28;20462;-92
2023/05/27 12:33:26;;;;;;;9.95;2.63;;;;;;;;;;5097845;28;20044;-95
2023/05/27 12:35:53;;;;;;;5.90;2.58;;;;;;;;;;5110748;28;20036;-90
2023/05/27 12:38:22;;;;;;;7.25;2.50;;;;;;;;;;5097254;28;20063;-95
2023/05/27 12:40:49;;;;;;;4.72;2.40;;;;;;;;;;5097436;28;20105;-92
2023/05/27 12:43:17;;;;;;;5.70;2.53;;;;;;;;;;5095638;28;20047;-89
2023/05/27 12:45:45;;;;;;;5.47;2.22;;;;;;;;;;5096346;28;20048;-92
2023/05/27 12:48:13;;;;;;;5.35;2.58;;;;;;;;;;5095505;28;20070;-89
2023/05/27 12:50:41;;;;;;;7.40;2.42;;;;;;;;;;5096351;28;20071;-89
2023/05/27 12:53:08;;;;;;;4.68;2.10;;;;;;;;;;5096438;28;20048;-91
2023/05/27 12:55:36;;;;;;;8.68;2.63;;;;;;;;;;5096898;28;20051;-93
2023/05/27 12:58:04;;;;;;;8.23;2.40;;;;;;;;;;5097020;28;20072;-94
2023/05/27 13:00:34;;;;;;;9.18;2.47;;;;;;;;;;5098806;28;20044;-89
2023/05/27 13:03:01;;;;;;;6.80;2.10;;;;;;;;;;5096737;28;20055;-90
2023/05/27 13:05:29;;;;;;;8.68;2.42;;;;;;;;;;5095770;28;20523;-93
2023/05/27 13:08:01;;;;;;;6.00;2.40;;;;;;;;;;5082851;22;20037;-80
2023/05/27 13:10:28;;;;;;;9.13;2.20;;;;;;;;;;5013637;28;20046;-80
2023/05/27 13:12:56;;;;;;;5.57;2.70;;;;;;;;;;5013453;28;20048;-78
2023/05/27 13:15:23;;;;;;;4.70;2.10;;;;;;;;;;5014749;28;20046;-80
2023/05/27 13:17:51;;;;;;;4.82;2.00;;;;;;;;;;5013572;28;20049;-81
2023/05/27 13:20:20;;;;;;;4.72;2.22;;;;;;;;;;5013786;28;20082;-82
2023/05/27 13:22:48;;;;;;;6.97;2.25;;;;;;;;;;5014790;28;20509;-79
2023/05/27 13:25:16;;;;;;;5.18;2.33;;;;;;;;;;5014644;28;20050;-81
2023/05/27 13:27:46;;;;;;;6.68;2.05;;;;;;;;;;5014897;28;20054;-81
2023/05/27 13:30:14;;;;;;;5.05;2.08;;;;;;;;;;5016237;28;20050;-79
2023/05/27 13:32:42;;;;;;;5.40;2.45;;;;;;;;;;5015910;28;20124;-80
2023/05/27 13:35:14;;;;;;;9.05;2.40;;;;;;;;;;5014666;28;20054;-80
2023/05/27 13:37:41;;;;;;;6.07;2.20;;;;;;;;;;5013321;28;20068;-81
2023/05/27 13:40:09;;;;;;;3.15;2.10;;;;;;;;;;5013379;28;20054;-81
2023/05/27 13:42:37;;;;;;;9.13;2.20;;;;;;;;;;5012879;28;20049;-81
2023/05/27 13:45:05;;;;;;;7.72;2.80;;;;;;;;;;5013842;28;20049;-80
2023/05/27 13:47:32;;;;;;;6.63;2.50;;;;;;;;;;5013280;28;20135;-81
2023/05/27 13:50:00;;;;;;;4.95;2.25;;;;;;;;;;5012934;28;20103;-81
2023/05/27 13:52:27;;;;;;;3.13;2.15;;;;;;;;;;5014428;28;20103;-80
2023/05/27 13:54:54;;;;;;;6.43;1.92;;;;;;;;;;5013018;28;20078;-80
2023/05/27 13:57:22;;;;;;;5.85;2.20;;;;;;;;;;5013198;28;20259;-80
2023/05/27 13:59:49;;;;;;;4.93;1.90;;;;;;;;;;5014302;28;20452;-80
2023/05/27 14:02:17;;;;;;;10.55;2.13;;;;;;;;;;5012584;28;20049;-80
2023/05/27 14:04:44;;;;;;;6.05;2.35;;;;;;;;;;5013776;28;20061;-80
2023/05/27 14:07:11;;;;;;;4.30;1.88;;;;;;;;;;5012711;28;20046;-81
2023/05/27 14:09:39;;;;;;;7.63;2.20;;;;;;;;;;5013912;28;20061;-79
2023/05/27 14:12:06;;;;;;;6.65;2.17;;;;;;;;;;5012253;28;20050;-80
2023/05/27 14:14:33;;;;;;;5.82;2.20;;;;;;;;;;5012473;28;20046;-81
2023/05/27 14:17:01;;;;;;;7.47;2.22;;;;;;;;;;5016387;28;20050;-78
2023/05/27 14:19:28;;;;;;;6.68;2.10;;;;;;;;;;5018205;28;20046;-80
2023/05/27 14:21:55;;;;;;;2.78;1.67;;;;;;;;;;5018267;28;20045;-80
2023/05/27 14:24:22;;;;;;;3.20;1.88;;;;;;;;;;5016452;28;20475;-81
2023/05/27 14:26:49;;;;;;;5.97;2.00;;;;;;;;;;5016552;28;20049;-80
2023/05/27 14:29:17;;;;;;;3.55;2.05;;;;;;;;;;5016762;28;20061;-80
2023/05/27 14:31:44;;;;;;;7.78;2.42;;;;;;;;;;5016186;28;20447;-80
2023/05/27 14:34:11;;;;;;;4.75;2.53;;;;;;;;;;5018501;28;20564;-81
2023/05/27 14:36:38;;;;;;;4.65;2.13;;;;;;;;;;5017678;28;20077;-78
2023/05/27 14:39:06;;;;;;;4.05;2.20;;;;;;;;;;5016239;28;20092;-79
2023/05/27 14:41:33;;;;;;;5.88;1.98;;;;;;;;;;5016675;28;20050;-79